Аэропорт: Кызылорда. Кызылорда

ICAO: UAOO

METAR:
2021-04-21 19:00:00
UAOO 211900Z 05005MPS CAVOK 05/M10 Q1030 NOSIG RMK QFE761/1014
METAR:
2021-04-21 17:11:00
TAF UAOO 211711Z 2118/2203 04005MPS CAVOK